createdAt,value
2018-05-24T00:01:49.130Z,65.50
2018-05-24T00:04:18.409Z,66.00
2018-05-24T00:06:46.767Z,66.40
2018-05-24T00:09:15.743Z,66.60
2018-05-24T00:11:45.361Z,66.70
2018-05-24T00:14:14.766Z,66.80
2018-05-24T00:16:44.060Z,66.80
2018-05-24T00:19:13.440Z,66.80
2018-05-24T00:21:42.146Z,66.70
2018-05-24T00:24:11.195Z,66.80
2018-05-24T00:26:40.748Z,66.70
2018-05-24T00:29:09.955Z,66.60
2018-05-24T00:31:38.660Z,66.40
2018-05-24T00:34:06.843Z,66.40
2018-05-24T00:36:35.790Z,66.40
2018-05-24T00:39:05.343Z,66.30
2018-05-24T00:41:34.920Z,66.20
2018-05-24T00:44:03.147Z,66.30
2018-05-24T00:46:32.909Z,66.50
2018-05-24T00:49:01.665Z,66.50
2018-05-24T00:51:30.686Z,66.90
2018-05-24T00:53:59.696Z,66.90
2018-05-24T00:56:27.964Z,66.70
2018-05-24T00:58:56.877Z,66.50
2018-05-24T01:01:26.348Z,66.50
2018-05-24T01:03:54.534Z,66.50
2018-05-24T01:06:22.715Z,66.40
2018-05-24T01:08:51.456Z,66.30
2018-05-24T01:11:21.523Z,66.30
2018-05-24T01:13:51.640Z,66.20
2018-05-24T01:16:20.532Z,66.30
2018-05-24T01:18:49.833Z,66.20
2018-05-24T01:21:18.003Z,66.20
2018-05-24T01:23:47.417Z,66.30
2018-05-24T01:26:16.747Z,66.20
2018-05-24T01:28:45.841Z,66.30
2018-05-24T01:31:14.972Z,66.40
2018-05-24T01:33:44.881Z,66.40
2018-05-24T01:36:15.039Z,66.40
2018-05-24T01:38:44.319Z,66.30
2018-05-24T01:41:13.423Z,66.20
2018-05-24T01:43:41.576Z,66.10
2018-05-24T01:46:11.086Z,66.10
2018-05-24T01:48:41.410Z,66.00
2018-05-24T01:51:10.851Z,66.80
2018-05-24T01:53:39.753Z,66.10
2018-05-24T01:56:08.936Z,66.20
2018-05-24T01:58:37.585Z,66.20
2018-05-24T02:01:07.613Z,66.30
2018-05-24T02:03:37.684Z,66.30
2018-05-24T02:06:07.080Z,66.10
2018-05-24T02:08:36.492Z,66.10
2018-05-24T02:11:05.382Z,66.10
2018-05-24T02:13:34.250Z,66.60
2018-05-24T02:16:03.778Z,65.80
2018-05-24T02:18:32.522Z,65.80
2018-05-24T02:21:00.922Z,65.70
2018-05-24T02:23:30.041Z,65.80
2018-05-24T02:25:58.131Z,65.80
2018-05-24T02:28:27.462Z,65.60
2018-05-24T02:30:56.317Z,65.70
2018-05-24T02:33:24.355Z,65.70
2018-05-24T02:35:53.892Z,65.70
2018-05-24T02:38:22.552Z,65.60
2018-05-24T02:40:50.571Z,65.50
2018-05-24T02:43:20.029Z,65.80
2018-05-24T02:45:49.515Z,65.80
2018-05-24T02:48:18.601Z,65.50
2018-05-24T02:50:48.143Z,65.60
2018-05-24T02:53:16.995Z,65.50
2018-05-24T02:55:45.637Z,65.50
2018-05-24T02:58:14.980Z,65.40
2018-05-24T03:00:43.627Z,65.90
2018-05-24T03:03:11.835Z,66.40
2018-05-24T03:05:40.261Z,67.30
2018-05-24T03:08:10.785Z,67.30
2018-05-24T03:10:40.845Z,67.10
2018-05-24T03:13:09.049Z,67.00
2018-05-24T03:15:38.115Z,67.00
2018-05-24T03:18:07.715Z,67.60
2018-05-24T03:20:38.092Z,68.00
2018-05-24T03:23:09.992Z,68.40
2018-05-24T03:25:40.251Z,69.90
2018-05-24T03:28:10.116Z,71.70
2018-05-24T03:30:39.007Z,71.70
2018-05-24T03:33:09.411Z,71.60
2018-05-24T03:35:38.122Z,71.10
2018-05-24T03:38:06.704Z,70.90
2018-05-24T03:40:35.139Z,70.50
2018-05-24T03:43:02.681Z,70.50
2018-05-24T03:45:31.425Z,70.50
2018-05-24T03:48:00.333Z,70.30
2018-05-24T03:50:30.057Z,70.10
2018-05-24T03:52:58.565Z,69.60
2018-05-24T03:55:28.634Z,69.20
2018-05-24T03:57:58.077Z,69.20
2018-05-24T04:00:37.460Z,68.80
2018-05-24T04:03:17.375Z,68.60
2018-05-24T04:05:47.380Z,68.50
2018-05-24T04:08:15.936Z,68.60
2018-05-24T04:10:43.482Z,68.80
2018-05-24T04:13:12.486Z,69.20
2018-05-24T04:15:40.880Z,69.00
2018-05-24T04:18:09.201Z,68.90
2018-05-24T04:20:39.367Z,68.60
2018-05-24T04:23:09.658Z,68.50
2018-05-24T04:25:39.756Z,69.20
2018-05-24T04:28:09.069Z,69.70
2018-05-24T04:30:39.851Z,69.40
2018-05-24T04:33:08.708Z,69.40
2018-05-24T04:35:38.179Z,69.20
2018-05-24T04:38:09.295Z,69.20
2018-05-24T04:40:38.152Z,69.20
2018-05-24T04:43:06.328Z,69.10
2018-05-24T04:45:34.820Z,69.10
2018-05-24T04:48:05.387Z,68.70
2018-05-24T04:50:34.644Z,68.70
2018-05-24T04:53:03.227Z,68.40
2018-05-24T04:55:31.867Z,69.20
2018-05-24T04:58:00.729Z,68.90
2018-05-24T05:00:29.591Z,68.80
2018-05-24T05:02:57.623Z,69.10
2018-05-24T05:05:27.187Z,68.90
2018-05-24T05:07:57.099Z,68.70
2018-05-24T05:10:25.533Z,68.70
2018-05-24T05:12:54.580Z,68.70
2018-05-24T05:15:23.341Z,68.70
2018-05-24T05:17:53.010Z,68.40
2018-05-24T05:20:21.913Z,68.60
2018-05-24T05:22:51.063Z,68.20
2018-05-24T05:25:21.353Z,68.40
2018-05-24T05:27:51.145Z,68.10
2018-05-24T05:30:21.805Z,68.10
2018-05-24T05:32:51.397Z,68.70
2018-05-24T05:35:20.071Z,67.40
2018-05-24T05:37:49.274Z,67.00
2018-05-24T05:40:19.288Z,67.00
2018-05-24T05:42:49.405Z,66.60
2018-05-24T05:45:18.085Z,66.30
2018-05-24T05:47:46.165Z,66.10
2018-05-24T05:50:14.573Z,65.90
2018-05-24T05:52:43.187Z,65.60
2018-05-24T05:55:13.046Z,65.30
2018-05-24T05:57:43.738Z,64.60
2018-05-24T06:00:14.336Z,64.60
2018-05-24T06:02:43.110Z,63.90
2018-05-24T06:05:13.623Z,63.80
2018-05-24T06:07:42.561Z,63.80
2018-05-24T06:10:12.656Z,63.50
2018-05-24T06:12:41.580Z,63.50
2018-05-24T06:15:10.689Z,63.50
2018-05-24T06:17:38.396Z,63.30
2018-05-24T06:20:07.938Z,63.20
2018-05-24T06:22:36.539Z,63.10
2018-05-24T06:25:04.961Z,63.30
2018-05-24T06:27:34.502Z,63.00
2018-05-24T06:30:03.748Z,63.00
2018-05-24T06:32:32.798Z,62.90
2018-05-24T06:35:01.610Z,63.40
2018-05-24T06:37:31.005Z,62.00
2018-05-24T06:40:01.029Z,62.20
2018-05-24T06:42:29.999Z,62.10
2018-05-24T06:44:58.676Z,62.00
2018-05-24T06:47:28.321Z,62.00
2018-05-24T06:49:56.479Z,62.00
2018-05-24T06:52:24.600Z,61.80
2018-05-24T06:54:56.249Z,63.00
2018-05-24T06:57:24.781Z,62.10
2018-05-24T06:59:54.551Z,61.80
2018-05-24T07:02:23.825Z,62.50
2018-05-24T07:04:52.218Z,62.50
2018-05-24T07:09:55.602Z,63.10
2018-05-24T07:12:24.262Z,63.00
2018-05-24T07:14:54.264Z,62.80
2018-05-24T07:17:23.726Z,62.80
2018-05-24T07:19:53.027Z,62.70
2018-05-24T07:22:22.802Z,62.60
2018-05-24T07:24:51.570Z,62.10
2018-05-24T07:27:22.025Z,62.20
2018-05-24T07:29:51.513Z,62.50
2018-05-24T07:32:20.458Z,62.10
2018-05-24T07:34:50.060Z,62.00
2018-05-24T07:37:19.114Z,61.60
2018-05-24T07:39:49.412Z,60.90
2018-05-24T07:42:20.773Z,60.80
2018-05-24T07:44:50.672Z,60.70
2018-05-24T07:47:18.994Z,60.50
2018-05-24T07:49:47.328Z,60.30
2018-05-24T07:52:16.618Z,60.20
2018-05-24T07:54:44.689Z,59.80
2018-05-24T07:57:14.594Z,59.60
2018-05-24T07:59:43.408Z,59.50
2018-05-24T08:02:13.031Z,59.60
2018-05-24T08:04:41.245Z,59.70
2018-05-24T08:07:10.638Z,59.60
2018-05-24T08:09:39.096Z,59.50
2018-05-24T08:12:08.425Z,59.40
2018-05-24T08:14:37.210Z,59.30
2018-05-24T08:17:05.727Z,59.40
2018-05-24T08:19:34.408Z,59.40
2018-05-24T08:22:04.478Z,59.40
2018-05-24T08:24:34.132Z,59.30
2018-05-24T08:27:04.443Z,59.30
2018-05-24T08:29:35.351Z,59.30
2018-05-24T08:32:05.603Z,59.00
2018-05-24T08:34:34.242Z,58.90
2018-05-24T08:46:44.267Z,59.10
2018-05-24T08:49:12.979Z,59.10
2018-05-24T08:51:41.640Z,58.70
2018-05-24T08:54:10.817Z,58.70
2018-05-24T08:56:39.892Z,58.50
2018-05-24T08:59:08.400Z,58.40
2018-05-24T09:01:37.176Z,58.30
2018-05-24T09:04:06.089Z,58.10
2018-05-24T09:06:35.757Z,57.40
2018-05-24T09:09:06.899Z,57.20
2018-05-24T09:11:34.978Z,57.30
2018-05-24T09:14:05.218Z,57.20
2018-05-24T09:16:34.822Z,57.20
2018-05-24T09:19:03.911Z,57.20
2018-05-24T09:21:33.469Z,57.10
2018-05-24T09:24:02.672Z,56.50
2018-05-24T09:26:31.985Z,56.50
2018-05-24T09:29:00.624Z,56.40
2018-05-24T09:31:29.285Z,56.50
2018-05-24T09:33:58.859Z,56.30
2018-05-24T09:36:27.530Z,56.80
2018-05-24T09:38:56.281Z,56.90
2018-05-24T09:41:27.616Z,56.90
2018-05-24T09:43:56.712Z,56.90
2018-05-24T09:46:26.509Z,56.70
2018-05-24T09:48:56.030Z,56.40
2018-05-24T09:51:26.353Z,56.20
2018-05-24T09:53:54.543Z,56.20
2018-05-24T09:56:23.734Z,56.10
2018-05-24T09:58:52.811Z,55.90
2018-05-24T10:01:22.127Z,55.80
2018-05-24T10:03:51.120Z,55.60
2018-05-24T10:06:20.157Z,55.50
2018-05-24T10:08:48.367Z,55.20
2018-05-24T10:11:17.443Z,55.10
2018-05-24T10:13:47.815Z,55.00
2018-05-24T10:16:17.790Z,55.00
2018-05-24T10:18:46.410Z,55.00
2018-05-24T10:21:14.670Z,54.70
2018-05-24T10:23:43.869Z,54.30
2018-05-24T10:26:12.166Z,54.20
2018-05-24T10:28:44.045Z,54.40
2018-05-24T10:31:13.552Z,54.30
2018-05-24T10:33:42.465Z,54.10
2018-05-24T10:36:11.556Z,54.00
2018-05-24T10:38:41.021Z,53.80
2018-05-24T10:41:11.144Z,53.80
2018-05-24T10:43:40.017Z,53.30
2018-05-24T10:46:07.579Z,53.20
2018-05-24T10:48:37.020Z,52.60
2018-05-24T10:51:05.203Z,52.30
2018-05-24T10:53:33.884Z,51.50
2018-05-24T10:56:02.717Z,51.40
2018-05-24T10:58:31.278Z,51.60
2018-05-24T11:01:00.505Z,51.20
2018-05-24T11:03:29.164Z,49.80
2018-05-24T11:05:58.001Z,50.30
2018-05-24T11:08:27.669Z,50.10
2018-05-24T11:10:55.259Z,49.80
2018-05-24T11:13:24.028Z,50.00
2018-05-24T11:15:57.739Z,49.70
2018-05-24T11:18:28.325Z,49.30
2018-05-24T11:20:58.395Z,49.30
2018-05-24T11:23:26.721Z,49.00
2018-05-24T11:26:02.665Z,48.90
2018-05-24T11:28:31.808Z,48.90
2018-05-24T11:31:02.267Z,48.90
2018-05-24T11:33:31.375Z,49.10
2018-05-24T11:36:02.964Z,49.00
2018-05-24T11:38:31.984Z,48.60
2018-05-24T11:41:01.774Z,48.80
2018-05-24T11:43:31.838Z,49.00
2018-05-24T11:46:04.079Z,49.00
2018-05-24T11:48:33.683Z,49.00
2018-05-24T11:51:04.040Z,48.90
2018-05-24T11:53:35.810Z,48.80
2018-05-24T11:56:03.867Z,48.80
2018-05-24T11:58:33.042Z,49.10
2018-05-24T12:01:02.295Z,49.10
2018-05-24T12:03:31.158Z,48.80
2018-05-24T12:06:03.822Z,49.20
2018-05-24T12:08:32.158Z,49.70
2018-05-24T12:11:01.065Z,49.60
2018-05-24T12:13:30.290Z,50.80
2018-05-24T12:16:00.569Z,51.20
2018-05-24T12:18:29.725Z,51.70
2018-05-24T12:20:59.162Z,51.80
2018-05-24T12:23:28.506Z,51.80
2018-05-24T12:25:56.622Z,51.40
2018-05-24T12:28:24.713Z,51.10
2018-05-24T12:30:53.399Z,50.50
2018-05-24T12:33:21.882Z,50.70
2018-05-24T12:35:52.005Z,51.20
2018-05-24T12:38:21.108Z,52.00
2018-05-24T12:40:51.567Z,53.10
2018-05-24T12:43:21.003Z,54.30
2018-05-24T12:45:52.214Z,54.90
2018-05-24T12:48:23.386Z,54.90
2018-05-24T12:50:53.521Z,54.70
2018-05-24T12:53:24.156Z,54.70
2018-05-24T12:55:53.381Z,54.50
2018-05-24T12:58:22.680Z,54.30
2018-05-24T13:00:51.851Z,54.60
2018-05-24T13:03:21.021Z,54.50
2018-05-24T13:05:51.132Z,54.10
2018-05-24T13:08:28.069Z,54.30
2018-05-24T13:10:57.116Z,54.30
2018-05-24T13:13:26.450Z,54.50
2018-05-24T13:15:54.826Z,54.90
2018-05-24T13:18:23.509Z,55.10
2018-05-24T13:20:53.985Z,55.90
2018-05-24T13:23:23.469Z,55.90
2018-05-24T13:25:53.018Z,55.80
2018-05-24T13:28:24.910Z,55.90
2018-05-24T13:30:59.563Z,55.90
2018-05-24T13:33:28.710Z,55.90
2018-05-24T13:35:59.885Z,55.90
2018-05-24T13:38:28.820Z,56.40
2018-05-24T13:40:58.210Z,56.10
2018-05-24T13:43:28.033Z,56.10
2018-05-24T13:45:58.347Z,56.50
2018-05-24T13:48:27.498Z,57.00
2018-05-24T13:50:56.756Z,58.20
2018-05-24T13:53:26.246Z,58.30
2018-05-24T13:55:54.870Z,59.10
2018-05-24T13:58:23.027Z,60.00
2018-05-24T14:00:50.603Z,60.70
2018-05-24T14:03:20.309Z,61.10
2018-05-24T14:05:49.783Z,61.60
2018-05-24T14:08:20.523Z,62.20
2018-05-24T14:10:49.289Z,62.90
2018-05-24T14:13:20.550Z,64.10
2018-05-24T14:15:49.657Z,64.60
2018-05-24T14:18:18.993Z,65.10
2018-05-24T14:20:48.461Z,66.20
2018-05-24T14:23:19.854Z,66.60
2018-05-24T14:25:49.911Z,67.10
2018-05-24T14:28:20.130Z,70.10
2018-05-24T14:30:48.616Z,70.20
2018-05-24T14:33:19.635Z,69.70
2018-05-24T14:35:49.584Z,69.50
2018-05-24T14:38:18.308Z,69.50
2018-05-24T14:40:46.932Z,70.70
2018-05-24T14:43:15.332Z,70.40
2018-05-24T14:45:43.981Z,70.00
2018-05-24T14:48:13.317Z,70.90
2018-05-24T14:50:41.990Z,70.70
2018-05-24T14:53:10.407Z,71.10
2018-05-24T14:55:40.050Z,70.10
2018-05-24T14:58:09.898Z,70.30
2018-05-24T15:00:38.730Z,70.30
2018-05-24T15:03:08.384Z,70.30
2018-05-24T15:05:37.948Z,68.60
2018-05-24T15:08:09.108Z,68.60
2018-05-24T15:10:39.465Z,68.40
2018-05-24T15:13:09.689Z,68.30
2018-05-24T15:15:41.474Z,67.30
2018-05-24T15:18:09.976Z,67.20
2018-05-24T15:20:38.593Z,67.20
2018-05-24T15:23:09.132Z,67.00
2018-05-24T15:25:39.986Z,67.10
2018-05-24T15:28:10.929Z,67.00
2018-05-24T15:30:39.820Z,66.50
2018-05-24T15:33:12.299Z,66.10
2018-05-24T15:35:42.559Z,66.00
2018-05-24T15:38:11.655Z,64.30
2018-05-24T15:40:40.079Z,63.60
2018-05-24T15:43:09.498Z,63.20
2018-05-24T15:45:38.518Z,62.70
2018-05-24T15:48:09.022Z,61.10
2018-05-24T15:50:38.790Z,60.70
2018-05-24T15:53:07.439Z,60.40
2018-05-24T15:55:36.717Z,59.20
2018-05-24T15:58:05.619Z,57.90
2018-05-24T16:00:35.483Z,57.90
2018-05-24T16:03:04.855Z,57.60
2018-05-24T16:05:34.758Z,57.60
2018-05-24T16:08:03.421Z,57.80
2018-05-24T16:10:32.684Z,57.80
2018-05-24T16:13:01.853Z,57.80
2018-05-24T16:15:31.132Z,58.10
2018-05-24T16:18:02.087Z,58.70
2018-05-24T16:20:30.849Z,58.60
2018-05-24T16:22:59.690Z,59.10
2018-05-24T16:25:29.194Z,59.10
2018-05-24T16:27:59.654Z,59.50
2018-05-24T16:30:28.060Z,59.80
2018-05-24T16:32:56.703Z,60.60
2018-05-24T16:35:25.167Z,60.50
2018-05-24T16:37:53.201Z,60.80
2018-05-24T16:40:23.247Z,60.90
2018-05-24T16:42:51.543Z,61.80
2018-05-24T16:45:20.990Z,61.30
2018-05-24T16:47:50.105Z,62.40
2018-05-24T16:50:18.412Z,62.00
2018-05-24T16:52:46.585Z,62.60
2018-05-24T16:55:14.759Z,64.20
2018-05-24T16:57:43.345Z,64.40
2018-05-24T17:00:13.585Z,64.80
2018-05-24T17:02:41.844Z,63.80
2018-05-24T17:05:10.164Z,63.70
2018-05-24T17:07:39.217Z,63.30
2018-05-24T17:10:07.247Z,62.80
2018-05-24T17:12:37.251Z,63.30
2018-05-24T17:15:06.606Z,63.50
2018-05-24T17:17:34.201Z,63.80
2018-05-24T17:20:03.154Z,63.90
2018-05-24T17:22:33.379Z,64.40
2018-05-24T17:25:03.512Z,64.70
2018-05-24T17:27:32.438Z,65.10
2018-05-24T17:30:01.059Z,65.00
2018-05-24T17:32:29.228Z,65.50
2018-05-24T17:34:59.100Z,65.70
2018-05-24T17:37:30.023Z,66.30
2018-05-24T17:39:58.438Z,66.40
2018-05-24T17:42:27.206Z,66.20
2018-05-24T17:44:55.841Z,66.10
2018-05-24T17:47:24.316Z,66.10
2018-05-24T17:49:53.559Z,66.10
2018-05-24T17:52:23.409Z,66.00
2018-05-24T17:54:54.162Z,66.80
2018-05-24T17:57:23.993Z,66.80
2018-05-24T17:59:52.050Z,66.80
2018-05-24T18:02:23.262Z,67.20
2018-05-24T18:04:53.621Z,67.20
2018-05-24T18:07:23.868Z,67.00
2018-05-24T18:09:56.841Z,65.80
2018-05-24T18:12:27.379Z,62.80
2018-05-24T18:14:56.649Z,63.00
2018-05-24T18:17:25.381Z,62.40
2018-05-24T18:19:54.138Z,63.20
2018-05-24T18:22:23.450Z,63.10
2018-05-24T18:24:51.616Z,63.30
2018-05-24T18:27:20.940Z,63.80
2018-05-24T18:29:51.954Z,64.20
2018-05-24T18:32:20.904Z,64.40
2018-05-24T18:34:51.347Z,64.90
2018-05-24T18:37:20.937Z,66.70
2018-05-24T18:39:49.042Z,68.40
2018-05-24T18:42:17.950Z,68.70
2018-05-24T18:44:47.067Z,68.80
2018-05-24T18:47:15.135Z,68.60
2018-05-24T18:49:44.830Z,68.70
2018-05-24T18:52:13.713Z,68.80
2018-05-24T18:54:44.483Z,70.70
2018-05-24T18:57:13.346Z,70.60
2018-05-24T18:59:42.865Z,71.70
2018-05-24T19:02:11.574Z,71.70
2018-05-24T19:04:40.340Z,72.50
2018-05-24T19:07:08.616Z,72.30
2018-05-24T19:09:37.966Z,72.30
2018-05-24T19:12:08.550Z,72.30
2018-05-24T19:14:36.698Z,72.40
2018-05-24T19:17:05.686Z,71.50
2018-05-24T19:19:33.781Z,71.40
2018-05-24T19:22:04.123Z,70.70
2018-05-24T19:24:32.433Z,70.70
2018-05-24T19:27:03.454Z,70.30
2018-05-24T19:29:33.469Z,70.70
2018-05-24T19:32:04.693Z,70.90
2018-05-24T19:34:35.166Z,71.10
2018-05-24T19:37:04.186Z,71.10
2018-05-24T19:39:33.514Z,70.80
2018-05-24T19:42:03.060Z,69.40
2018-05-24T19:44:33.232Z,69.30
2018-05-24T19:47:03.052Z,68.90
2018-05-24T19:49:32.055Z,69.00
2018-05-24T19:52:01.037Z,69.00
2018-05-24T19:54:30.354Z,69.10
2018-05-24T19:56:59.004Z,69.30
2018-05-24T19:59:28.573Z,69.10
2018-05-24T20:01:57.407Z,69.80
2018-05-24T20:04:26.305Z,69.80
2018-05-24T20:06:56.053Z,69.40
2018-05-24T20:09:25.374Z,69.40
2018-05-24T20:11:55.557Z,68.50
2018-05-24T20:14:26.054Z,69.10
2018-05-24T20:16:55.263Z,68.60
2018-05-24T20:19:26.509Z,69.50
2018-05-24T20:21:56.760Z,68.70
2018-05-24T20:24:25.577Z,68.70
2018-05-24T20:26:57.089Z,68.50
2018-05-24T20:29:27.209Z,68.50
2018-05-24T20:31:58.623Z,68.00
2018-05-24T20:34:28.282Z,68.00
2018-05-24T20:36:57.005Z,69.80
2018-05-24T20:39:27.972Z,70.70
2018-05-24T20:42:00.841Z,70.90
2018-05-24T20:44:31.177Z,71.40
2018-05-24T20:47:00.813Z,71.90
2018-05-24T20:49:31.172Z,73.80
2018-05-24T20:52:00.566Z,73.60
2018-05-24T20:54:30.278Z,73.30
2018-05-24T21:09:55.346Z,72.60
2018-05-24T21:12:24.787Z,70.60
2018-05-24T21:14:54.101Z,70.60
2018-05-24T21:17:24.325Z,70.50
2018-05-24T21:19:53.161Z,70.10
2018-05-24T21:22:24.773Z,70.00
2018-05-24T21:24:54.307Z,69.20
2018-05-24T21:27:24.364Z,68.60
2018-05-24T21:29:53.780Z,68.50
2018-05-24T21:32:21.786Z,68.30
2018-05-24T21:34:50.845Z,68.40
2018-05-24T21:37:18.938Z,68.20
2018-05-24T21:39:49.665Z,68.00
2018-05-24T21:42:18.794Z,67.90
2018-05-24T21:44:47.103Z,68.00
2018-05-24T21:47:15.841Z,68.00
2018-05-24T21:49:44.542Z,67.90
2018-05-24T21:52:12.138Z,67.80
2018-05-24T21:54:41.068Z,67.80
2018-05-24T21:57:10.946Z,67.80
2018-05-24T21:59:41.341Z,67.80
2018-05-24T22:02:10.014Z,67.60
2018-05-24T22:04:38.907Z,67.40
2018-05-24T22:07:07.109Z,67.50
2018-05-24T22:09:37.221Z,68.30
2018-05-24T22:12:06.576Z,68.70
2018-05-24T22:14:35.302Z,68.60
2018-05-24T22:17:05.167Z,68.80
2018-05-24T22:19:33.353Z,69.10
2018-05-24T22:22:01.973Z,69.20
2018-05-24T22:24:29.591Z,69.30
2018-05-24T22:26:57.472Z,69.10
2018-05-24T22:29:27.139Z,69.10
2018-05-24T22:31:56.253Z,69.00
2018-05-24T22:34:25.654Z,68.90
2018-05-24T22:36:53.205Z,68.70
2018-05-24T22:39:24.106Z,69.20
2018-05-24T22:44:30.171Z,69.30
2018-05-24T22:46:58.760Z,69.60
2018-05-24T22:49:29.333Z,69.60
2018-05-24T22:52:09.089Z,69.60
2018-05-24T22:54:38.899Z,69.60
2018-05-24T22:57:07.342Z,69.50
2018-05-24T22:59:37.656Z,69.50
2018-05-24T23:02:06.730Z,69.30
2018-05-24T23:04:35.442Z,69.40
2018-05-24T23:07:04.557Z,69.30
2018-05-24T23:09:33.910Z,69.40
2018-05-24T23:12:03.144Z,69.30
2018-05-24T23:14:32.052Z,69.20
2018-05-24T23:17:02.355Z,68.80
2018-05-24T23:19:30.618Z,68.80
2018-05-24T23:22:04.652Z,68.60
2018-05-24T23:24:35.076Z,68.60
2018-05-24T23:27:07.161Z,68.70
2018-05-24T23:29:35.950Z,68.40
2018-05-24T23:32:06.907Z,68.50
2018-05-24T23:34:35.357Z,68.50
2018-05-24T23:37:05.065Z,68.30
2018-05-24T23:39:34.325Z,68.30
2018-05-24T23:42:02.491Z,68.20
2018-05-24T23:44:30.653Z,68.30
2018-05-24T23:46:58.915Z,68.40
2018-05-24T23:49:31.593Z,68.00
2018-05-24T23:52:01.945Z,68.00
2018-05-24T23:54:30.898Z,67.90
2018-05-24T23:56:59.569Z,68.30
2018-05-24T23:59:29.361Z,68.80
